sensor_id;sensor_type;location;lat;lon;timestamp;temperature;humidity
53752;DHT22;41095;53.090;6.692;2023-04-24T00:00:08;11.40;99.90
53752;DHT22;41095;53.090;6.692;2023-04-24T00:02:35;11.30;99.90
53752;DHT22;41095;53.090;6.692;2023-04-24T00:05:04;11.30;99.90
53752;DHT22;41095;53.090;6.692;2023-04-24T00:07:31;11.30;99.90
53752;DHT22;41095;53.090;6.692;2023-04-24T00:09:57;11.30;99.90
53752;DHT22;41095;53.090;6.692;2023-04-24T00:12:23;11.30;99.90
53752;DHT22;41095;53.090;6.692;2023-04-24T00:14:49;11.20;99.90
53752;DHT22;41095;53.090;6.692;2023-04-24T00:17:14;11.10;99.90
53752;DHT22;41095;53.090;6.692;2023-04-24T00:19:40;11.10;99.90
53752;DHT22;41095;53.090;6.692;2023-04-24T00:22:06;11.10;99.90
53752;DHT22;41095;53.090;6.692;2023-04-24T00:24:32;11.10;99.90
53752;DHT22;41095;53.090;6.692;2023-04-24T00:26:57;11.00;99.90
53752;DHT22;41095;53.090;6.692;2023-04-24T00:29:23;11.00;99.90
53752;DHT22;41095;53.090;6.692;2023-04-24T00:31:49;11.00;99.90
53752;DHT22;41095;53.090;6.692;2023-04-24T00:34:15;11.00;99.90
53752;DHT22;41095;53.090;6.692;2023-04-24T00:36:40;11.00;99.90
53752;DHT22;41095;53.090;6.692;2023-04-24T00:39:06;11.00;99.90
53752;DHT22;41095;53.090;6.692;2023-04-24T00:41:34;10.90;99.90
53752;DHT22;41095;53.090;6.692;2023-04-24T00:44:00;10.90;99.90
53752;DHT22;41095;53.090;6.692;2023-04-24T00:46:26;10.90;99.90
53752;DHT22;41095;53.090;6.692;2023-04-24T00:48:52;10.90;99.90
53752;DHT22;41095;53.090;6.692;2023-04-24T00:51:18;10.90;99.90
53752;DHT22;41095;53.090;6.692;2023-04-24T00:53:44;10.90;99.90
53752;DHT22;41095;53.090;6.692;2023-04-24T00:56:10;10.90;99.90
53752;DHT22;41095;53.090;6.692;2023-04-24T00:58:36;10.90;99.90
53752;DHT22;41095;53.090;6.692;2023-04-24T01:01:02;10.90;99.90
53752;DHT22;41095;53.090;6.692;2023-04-24T01:03:33;10.80;99.90
53752;DHT22;41095;53.090;6.692;2023-04-24T01:05:59;10.80;99.90
53752;DHT22;41095;53.090;6.692;2023-04-24T01:08:26;10.80;99.90
53752;DHT22;41095;53.090;6.692;2023-04-24T01:10:54;10.90;99.90
53752;DHT22;41095;53.090;6.692;2023-04-24T01:13:20;10.90;99.90
53752;DHT22;41095;53.090;6.692;2023-04-24T01:15:47;10.90;99.90
53752;DHT22;41095;53.090;6.692;2023-04-24T01:18:13;10.90;99.90
53752;DHT22;41095;53.090;6.692;2023-04-24T01:20:40;10.80;99.90
53752;DHT22;41095;53.090;6.692;2023-04-24T01:23:07;10.80;99.90
53752;DHT22;41095;53.090;6.692;2023-04-24T01:25:33;10.80;99.90
53752;DHT22;41095;53.090;6.692;2023-04-24T01:27:59;10.80;99.90
53752;DHT22;41095;53.090;6.692;2023-04-24T01:30:26;10.80;99.90
53752;DHT22;41095;53.090;6.692;2023-04-24T01:32:52;10.90;99.90
53752;DHT22;41095;53.090;6.692;2023-04-24T01:35:18;10.90;99.90
53752;DHT22;41095;53.090;6.692;2023-04-24T01:37:44;10.90;99.90
53752;DHT22;41095;53.090;6.692;2023-04-24T01:40:10;10.90;99.90
53752;DHT22;41095;53.090;6.692;2023-04-24T01:42:36;10.90;99.90
53752;DHT22;41095;53.090;6.692;2023-04-24T01:45:03;10.90;99.90
53752;DHT22;41095;53.090;6.692;2023-04-24T01:47:30;10.90;99.90
53752;DHT22;41095;53.090;6.692;2023-04-24T01:49:56;10.90;99.90
53752;DHT22;41095;53.090;6.692;2023-04-24T01:52:21;10.90;99.90
53752;DHT22;41095;53.090;6.692;2023-04-24T01:54:47;10.90;99.90
53752;DHT22;41095;53.090;6.692;2023-04-24T01:57:14;10.90;99.90
53752;DHT22;41095;53.090;6.692;2023-04-24T01:59:40;10.90;99.90
53752;DHT22;41095;53.090;6.692;2023-04-24T02:02:05;10.90;99.90
53752;DHT22;41095;53.090;6.692;2023-04-24T02:04:31;10.90;99.90
53752;DHT22;41095;53.090;6.692;2023-04-24T02:06:57;10.90;99.90
53752;DHT22;41095;53.090;6.692;2023-04-24T02:09:23;10.90;99.90
53752;DHT22;41095;53.090;6.692;2023-04-24T02:11:48;10.80;99.90
53752;DHT22;41095;53.090;6.692;2023-04-24T02:14:14;10.80;99.90
53752;DHT22;41095;53.090;6.692;2023-04-24T02:16:40;10.90;99.90
53752;DHT22;41095;53.090;6.692;2023-04-24T02:19:05;10.80;99.90
53752;DHT22;41095;53.090;6.692;2023-04-24T02:21:31;10.80;99.90
53752;DHT22;41095;53.090;6.692;2023-04-24T02:23:57;10.80;99.90
53752;DHT22;41095;53.090;6.692;2023-04-24T02:26:23;10.90;99.90
53752;DHT22;41095;53.090;6.692;2023-04-24T02:28:48;10.90;99.90
53752;DHT22;41095;53.090;6.692;2023-04-24T02:31:14;10.80;99.90
53752;DHT22;41095;53.090;6.692;2023-04-24T02:33:40;10.80;99.90
53752;DHT22;41095;53.090;6.692;2023-04-24T02:36:06;10.90;99.90
53752;DHT22;41095;53.090;6.692;2023-04-24T02:38:32;10.90;99.90
53752;DHT22;41095;53.090;6.692;2023-04-24T02:40:58;10.90;99.90
53752;DHT22;41095;53.090;6.692;2023-04-24T02:43:23;10.90;99.90
53752;DHT22;41095;53.090;6.692;2023-04-24T02:45:49;10.90;99.90
53752;DHT22;41095;53.090;6.692;2023-04-24T02:48:15;10.90;99.90
53752;DHT22;41095;53.090;6.692;2023-04-24T02:50:40;10.90;99.90
53752;DHT22;41095;53.090;6.692;2023-04-24T02:53:06;10.90;99.90
53752;DHT22;41095;53.090;6.692;2023-04-24T02:55:32;10.80;99.90
53752;DHT22;41095;53.090;6.692;2023-04-24T02:57:58;10.80;99.90
53752;DHT22;41095;53.090;6.692;2023-04-24T03:00:23;10.80;99.90
53752;DHT22;41095;53.090;6.692;2023-04-24T03:02:49;10.80;99.90
53752;DHT22;41095;53.090;6.692;2023-04-24T03:05:15;10.80;99.90
53752;DHT22;41095;53.090;6.692;2023-04-24T03:07:41;10.70;99.90
53752;DHT22;41095;53.090;6.692;2023-04-24T03:10:07;10.70;99.90
53752;DHT22;41095;53.090;6.692;2023-04-24T03:12:33;10.70;99.90
53752;DHT22;41095;53.090;6.692;2023-04-24T03:14:59;10.70;99.90
53752;DHT22;41095;53.090;6.692;2023-04-24T03:17:24;10.70;99.90
53752;DHT22;41095;53.090;6.692;2023-04-24T03:19:50;10.60;99.90
53752;DHT22;41095;53.090;6.692;2023-04-24T03:22:16;10.60;99.90
53752;DHT22;41095;53.090;6.692;2023-04-24T03:24:42;10.60;99.90
53752;DHT22;41095;53.090;6.692;2023-04-24T03:27:07;10.60;99.90
53752;DHT22;41095;53.090;6.692;2023-04-24T03:29:33;10.70;99.90
53752;DHT22;41095;53.090;6.692;2023-04-24T03:31:59;10.60;99.90
53752;DHT22;41095;53.090;6.692;2023-04-24T03:34:24;10.60;99.90
53752;DHT22;41095;53.090;6.692;2023-04-24T03:36:50;10.60;99.90
53752;DHT22;41095;53.090;6.692;2023-04-24T03:39:16;10.60;99.90
53752;DHT22;41095;53.090;6.692;2023-04-24T03:41:41;10.60;99.90
53752;DHT22;41095;53.090;6.692;2023-04-24T03:44:07;10.60;99.90
53752;DHT22;41095;53.090;6.692;2023-04-24T03:46:33;10.50;99.90
53752;DHT22;41095;53.090;6.692;2023-04-24T03:48:58;10.50;99.90
53752;DHT22;41095;53.090;6.692;2023-04-24T03:51:24;10.50;99.90
53752;DHT22;41095;53.090;6.692;2023-04-24T03:53:50;10.50;99.90
53752;DHT22;41095;53.090;6.692;2023-04-24T03:56:16;10.50;99.90
53752;DHT22;41095;53.090;6.692;2023-04-24T03:58:42;10.50;99.90
53752;DHT22;41095;53.090;6.692;2023-04-24T04:01:08;10.50;99.90
53752;DHT22;41095;53.090;6.692;2023-04-24T04:03:33;10.50;99.90
53752;DHT22;41095;53.090;6.692;2023-04-24T04:05:59;10.50;99.90
53752;DHT22;41095;53.090;6.692;2023-04-24T04:08:25;10.50;99.90
53752;DHT22;41095;53.090;6.692;2023-04-24T04:10:51;10.50;99.90
53752;DHT22;41095;53.090;6.692;2023-04-24T04:13:16;10.50;99.90
53752;DHT22;41095;53.090;6.692;2023-04-24T04:15:42;10.90;99.90
53752;DHT22;41095;53.090;6.692;2023-04-24T04:18:08;10.40;99.90
53752;DHT22;41095;53.090;6.692;2023-04-24T04:20:34;10.40;99.90
53752;DHT22;41095;53.090;6.692;2023-04-24T04:23:00;10.30;99.90
53752;DHT22;41095;53.090;6.692;2023-04-24T04:25:25;10.30;99.90
53752;DHT22;41095;53.090;6.692;2023-04-24T04:27:51;10.30;99.90
53752;DHT22;41095;53.090;6.692;2023-04-24T04:30:18;10.30;99.90
53752;DHT22;41095;53.090;6.692;2023-04-24T04:32:44;10.20;99.90
53752;DHT22;41095;53.090;6.692;2023-04-24T04:35:09;10.20;99.90
53752;DHT22;41095;53.090;6.692;2023-04-24T04:37:35;10.20;99.90
53752;DHT22;41095;53.090;6.692;2023-04-24T04:40:02;10.20;99.90
53752;DHT22;41095;53.090;6.692;2023-04-24T04:42:37;10.20;99.90
53752;DHT22;41095;53.090;6.692;2023-04-24T04:45:07;10.10;99.90
53752;DHT22;41095;53.090;6.692;2023-04-24T04:47:34;10.20;99.90
53752;DHT22;41095;53.090;6.692;2023-04-24T04:50:00;10.10;99.90
53752;DHT22;41095;53.090;6.692;2023-04-24T04:52:26;10.20;99.90
53752;DHT22;41095;53.090;6.692;2023-04-24T04:54:52;10.10;99.90
53752;DHT22;41095;53.090;6.692;2023-04-24T04:57:18;10.20;99.90
53752;DHT22;41095;53.090;6.692;2023-04-24T04:59:44;10.10;99.90
53752;DHT22;41095;53.090;6.692;2023-04-24T05:02:10;10.20;99.90
53752;DHT22;41095;53.090;6.692;2023-04-24T05:04:35;10.20;99.90
53752;DHT22;41095;53.090;6.692;2023-04-24T05:07:01;10.20;99.90
53752;DHT22;41095;53.090;6.692;2023-04-24T05:09:27;9.20;99.90
53752;DHT22;41095;53.090;6.692;2023-04-24T05:11:54;10.20;99.90
53752;DHT22;41095;53.090;6.692;2023-04-24T05:14:20;10.10;99.90
53752;DHT22;41095;53.090;6.692;2023-04-24T05:16:47;10.10;99.90
53752;DHT22;41095;53.090;6.692;2023-04-24T05:19:13;10.10;99.90
53752;DHT22;41095;53.090;6.692;2023-04-24T05:21:40;10.10;99.90
53752;DHT22;41095;53.090;6.692;2023-04-24T05:24:06;10.10;99.90
53752;DHT22;41095;53.090;6.692;2023-04-24T05:26:32;10.10;99.90
53752;DHT22;41095;53.090;6.692;2023-04-24T05:28:57;10.10;99.90
53752;DHT22;41095;53.090;6.692;2023-04-24T05:31:23;10.10;99.90
53752;DHT22;41095;53.090;6.692;2023-04-24T05:33:49;10.10;99.90
53752;DHT22;41095;53.090;6.692;2023-04-24T05:36:15;10.20;99.90
53752;DHT22;41095;53.090;6.692;2023-04-24T05:38:41;10.10;99.90
53752;DHT22;41095;53.090;6.692;2023-04-24T05:41:06;10.10;99.90
53752;DHT22;41095;53.090;6.692;2023-04-24T05:43:32;10.10;99.90
53752;DHT22;41095;53.090;6.692;2023-04-24T05:45:58;10.10;99.90
53752;DHT22;41095;53.090;6.692;2023-04-24T05:48:23;10.10;99.90
53752;DHT22;41095;53.090;6.692;2023-04-24T05:50:49;10.10;99.90
53752;DHT22;41095;53.090;6.692;2023-04-24T05:53:15;10.20;99.90
53752;DHT22;41095;53.090;6.692;2023-04-24T05:55:40;10.10;99.90
53752;DHT22;41095;53.090;6.692;2023-04-24T05:58:06;10.10;99.90
53752;DHT22;41095;53.090;6.692;2023-04-24T06:00:32;10.10;99.90
53752;DHT22;41095;53.090;6.692;2023-04-24T06:03:00;10.20;99.90
53752;DHT22;41095;53.090;6.692;2023-04-24T06:05:26;10.20;99.90
53752;DHT22;41095;53.090;6.692;2023-04-24T06:07:52;10.20;99.90
53752;DHT22;41095;53.090;6.692;2023-04-24T06:10:17;10.20;99.90
53752;DHT22;41095;53.090;6.692;2023-04-24T06:12:43;10.20;99.90
53752;DHT22;41095;53.090;6.692;2023-04-24T06:15:09;10.30;99.90
53752;DHT22;41095;53.090;6.692;2023-04-24T06:17:35;10.30;99.90
53752;DHT22;41095;53.090;6.692;2023-04-24T06:20:01;10.30;99.90
53752;DHT22;41095;53.090;6.692;2023-04-24T06:22:29;10.30;99.90
53752;DHT22;41095;53.090;6.692;2023-04-24T06:24:55;10.30;99.90
53752;DHT22;41095;53.090;6.692;2023-04-24T06:27:20;10.30;99.90
53752;DHT22;41095;53.090;6.692;2023-04-24T06:29:46;10.30;99.90
53752;DHT22;41095;53.090;6.692;2023-04-24T06:32:18;10.30;99.90
53752;DHT22;41095;53.090;6.692;2023-04-24T06:34:43;10.40;99.90
53752;DHT22;41095;53.090;6.692;2023-04-24T06:37:09;10.40;99.90
53752;DHT22;41095;53.090;6.692;2023-04-24T06:39:35;10.50;99.90
53752;DHT22;41095;53.090;6.692;2023-04-24T06:42:00;10.50;99.90
53752;DHT22;41095;53.090;6.692;2023-04-24T06:44:26;10.50;99.90
53752;DHT22;41095;53.090;6.692;2023-04-24T06:46:52;10.60;99.90
53752;DHT22;41095;53.090;6.692;2023-04-24T06:49:17;10.60;99.90
53752;DHT22;41095;53.090;6.692;2023-04-24T06:51:43;10.60;99.90
53752;DHT22;41095;53.090;6.692;2023-04-24T06:54:09;10.70;99.90
53752;DHT22;41095;53.090;6.692;2023-04-24T06:56:35;10.70;99.90
53752;DHT22;41095;53.090;6.692;2023-04-24T06:59:00;10.80;99.90
53752;DHT22;41095;53.090;6.692;2023-04-24T07:01:26;10.70;99.90
53752;DHT22;41095;53.090;6.692;2023-04-24T07:03:52;10.80;99.90
53752;DHT22;41095;53.090;6.692;2023-04-24T07:06:18;10.80;99.90
53752;DHT22;41095;53.090;6.692;2023-04-24T07:08:46;10.80;99.90
53752;DHT22;41095;53.090;6.692;2023-04-24T07:11:12;10.90;99.90
53752;DHT22;41095;53.090;6.692;2023-04-24T07:13:38;10.90;99.90
53752;DHT22;41095;53.090;6.692;2023-04-24T07:16:07;10.80;99.90
53752;DHT22;41095;53.090;6.692;2023-04-24T07:18:34;10.80;99.90
53752;DHT22;41095;53.090;6.692;2023-04-24T07:21:02;10.90;99.90
53752;DHT22;41095;53.090;6.692;2023-04-24T07:23:27;10.80;99.90
53752;DHT22;41095;53.090;6.692;2023-04-24T07:25:53;10.80;99.90
53752;DHT22;41095;53.090;6.692;2023-04-24T07:28:20;10.80;99.90
53752;DHT22;41095;53.090;6.692;2023-04-24T07:30:46;10.80;99.90
53752;DHT22;41095;53.090;6.692;2023-04-24T07:33:11;10.80;99.90
53752;DHT22;41095;53.090;6.692;2023-04-24T07:35:38;10.70;99.90
53752;DHT22;41095;53.090;6.692;2023-04-24T07:38:04;10.70;99.90
53752;DHT22;41095;53.090;6.692;2023-04-24T07:40:30;10.70;99.90
53752;DHT22;41095;53.090;6.692;2023-04-24T07:42:56;10.70;99.90
53752;DHT22;41095;53.090;6.692;2023-04-24T07:45:21;10.60;99.90
53752;DHT22;41095;53.090;6.692;2023-04-24T07:47:49;10.70;99.90
53752;DHT22;41095;53.090;6.692;2023-04-24T07:50:15;10.70;99.90
53752;DHT22;41095;53.090;6.692;2023-04-24T07:52:41;10.70;99.90
53752;DHT22;41095;53.090;6.692;2023-04-24T07:55:07;10.60;99.90
53752;DHT22;41095;53.090;6.692;2023-04-24T07:57:33;10.60;99.90
53752;DHT22;41095;53.090;6.692;2023-04-24T07:59:59;10.60;99.90
53752;DHT22;41095;53.090;6.692;2023-04-24T08:02:25;10.70;99.90
53752;DHT22;41095;53.090;6.692;2023-04-24T08:04:55;10.60;99.90
53752;DHT22;41095;53.090;6.692;2023-04-24T08:07:21;10.60;99.90
53752;DHT22;41095;53.090;6.692;2023-04-24T08:09:47;10.60;99.90
53752;DHT22;41095;53.090;6.692;2023-04-24T08:12:12;10.60;99.90
53752;DHT22;41095;53.090;6.692;2023-04-24T08:14:38;10.60;99.90
53752;DHT22;41095;53.090;6.692;2023-04-24T08:17:04;10.50;99.90
53752;DHT22;41095;53.090;6.692;2023-04-24T08:19:29;10.50;99.90
53752;DHT22;41095;53.090;6.692;2023-04-24T08:21:55;10.40;99.90
53752;DHT22;41095;53.090;6.692;2023-04-24T08:24:21;10.40;99.90
53752;DHT22;41095;53.090;6.692;2023-04-24T08:26:47;10.40;99.90
53752;DHT22;41095;53.090;6.692;2023-04-24T08:29:16;10.50;99.90
53752;DHT22;41095;53.090;6.692;2023-04-24T08:31:41;10.40;99.90
53752;DHT22;41095;53.090;6.692;2023-04-24T08:34:07;10.40;99.90
53752;DHT22;41095;53.090;6.692;2023-04-24T08:36:33;10.40;99.90
53752;DHT22;41095;53.090;6.692;2023-04-24T08:38:59;10.40;99.90
53752;DHT22;41095;53.090;6.692;2023-04-24T08:41:24;10.40;99.90
53752;DHT22;41095;53.090;6.692;2023-04-24T08:43:52;10.40;99.90
53752;DHT22;41095;53.090;6.692;2023-04-24T08:46:19;10.40;99.90
53752;DHT22;41095;53.090;6.692;2023-04-24T08:48:45;10.40;99.90
53752;DHT22;41095;53.090;6.692;2023-04-24T08:51:11;10.30;99.90
53752;DHT22;41095;53.090;6.692;2023-04-24T08:53:37;10.20;99.90
53752;DHT22;41095;53.090;6.692;2023-04-24T08:56:03;10.10;99.90
53752;DHT22;41095;53.090;6.692;2023-04-24T08:58:29;10.10;99.90
53752;DHT22;41095;53.090;6.692;2023-04-24T09:00:55;10.20;99.90
53752;DHT22;41095;53.090;6.692;2023-04-24T09:03:22;10.10;99.90
53752;DHT22;41095;53.090;6.692;2023-04-24T09:05:48;10.10;99.90
53752;DHT22;41095;53.090;6.692;2023-04-24T09:08:18;10.00;99.90
53752;DHT22;41095;53.090;6.692;2023-04-24T09:10:44;10.00;99.90
53752;DHT22;41095;53.090;6.692;2023-04-24T09:13:10;10.00;99.90
53752;DHT22;41095;53.090;6.692;2023-04-24T09:15:38;10.00;99.90
53752;DHT22;41095;53.090;6.692;2023-04-24T09:18:05;9.90;99.90
53752;DHT22;41095;53.090;6.692;2023-04-24T09:20:31;9.90;99.90
53752;DHT22;41095;53.090;6.692;2023-04-24T09:22:57;9.80;99.90
53752;DHT22;41095;53.090;6.692;2023-04-24T09:25:31;9.80;99.90
53752;DHT22;41095;53.090;6.692;2023-04-24T09:28:01;9.80;99.90
53752;DHT22;41095;53.090;6.692;2023-04-24T09:30:28;9.80;99.90
53752;DHT22;41095;53.090;6.692;2023-04-24T09:33:15;9.80;99.90
53752;DHT22;41095;53.090;6.692;2023-04-24T09:35:51;9.80;99.90
53752;DHT22;41095;53.090;6.692;2023-04-24T09:38:17;9.80;99.90
53752;DHT22;41095;53.090;6.692;2023-04-24T09:40:43;9.90;99.90
53752;DHT22;41095;53.090;6.692;2023-04-24T09:43:11;9.80;99.90
53752;DHT22;41095;53.090;6.692;2023-04-24T09:45:38;9.80;99.90
53752;DHT22;41095;53.090;6.692;2023-04-24T09:48:05;9.80;99.90
53752;DHT22;41095;53.090;6.692;2023-04-24T09:50:32;9.90;99.90
53752;DHT22;41095;53.090;6.692;2023-04-24T09:53:02;9.90;99.90
53752;DHT22;41095;53.090;6.692;2023-04-24T09:55:28;9.90;99.90
53752;DHT22;41095;53.090;6.692;2023-04-24T09:57:56;9.90;99.90
53752;DHT22;41095;53.090;6.692;2023-04-24T10:00:28;9.80;99.90
53752;DHT22;41095;53.090;6.692;2023-04-24T10:03:01;9.80;99.90
53752;DHT22;41095;53.090;6.692;2023-04-24T10:05:35;9.80;99.90
53752;DHT22;41095;53.090;6.692;2023-04-24T10:08:19;9.70;99.90
53752;DHT22;41095;53.090;6.692;2023-04-24T10:10:46;9.70;99.90
53752;DHT22;41095;53.090;6.692;2023-04-24T10:13:13;9.70;99.90
53752;DHT22;41095;53.090;6.692;2023-04-24T10:15:41;9.70;99.90
53752;DHT22;41095;53.090;6.692;2023-04-24T10:18:08;9.90;99.90
53752;DHT22;41095;53.090;6.692;2023-04-24T10:20:36;10.00;99.90
53752;DHT22;41095;53.090;6.692;2023-04-24T10:23:03;10.00;99.90
53752;DHT22;41095;53.090;6.692;2023-04-24T10:25:33;10.10;99.90
53752;DHT22;41095;53.090;6.692;2023-04-24T10:28:00;10.20;99.90
53752;DHT22;41095;53.090;6.692;2023-04-24T10:30:28;10.30;99.90
53752;DHT22;41095;53.090;6.692;2023-04-24T10:32:54;10.40;99.90
53752;DHT22;41095;53.090;6.692;2023-04-24T10:35:20;10.50;99.90
53752;DHT22;41095;53.090;6.692;2023-04-24T10:38:05;10.60;99.90
53752;DHT22;41095;53.090;6.692;2023-04-24T10:40:33;10.60;99.90
53752;DHT22;41095;53.090;6.692;2023-04-24T10:43:02;10.70;99.90
53752;DHT22;41095;53.090;6.692;2023-04-24T10:45:28;10.80;99.90
53752;DHT22;41095;53.090;6.692;2023-04-24T10:47:57;10.70;99.90
53752;DHT22;41095;53.090;6.692;2023-04-24T10:50:26;10.70;99.90
53752;DHT22;41095;53.090;6.692;2023-04-24T10:52:52;10.60;99.90
53752;DHT22;41095;53.090;6.692;2023-04-24T10:55:39;10.60;99.90
53752;DHT22;41095;53.090;6.692;2023-04-24T10:58:05;10.60;99.90
53752;DHT22;41095;53.090;6.692;2023-04-24T11:00:31;10.60;99.90
53752;DHT22;41095;53.090;6.692;2023-04-24T11:02:57;10.70;99.90
53752;DHT22;41095;53.090;6.692;2023-04-24T11:05:52;10.80;99.90
53752;DHT22;41095;53.090;6.692;2023-04-24T11:08:30;10.70;99.90
53752;DHT22;41095;53.090;6.692;2023-04-24T11:11:13;10.70;99.90
53752;DHT22;41095;53.090;6.692;2023-04-24T11:16:45;10.70;99.90
53752;DHT22;41095;53.090;6.692;2023-04-24T11:21:44;10.90;99.90
53752;DHT22;41095;53.090;6.692;2023-04-24T11:35:19;10.90;99.90
53752;DHT22;41095;53.090;6.692;2023-04-24T11:37:48;10.80;99.90
53752;DHT22;41095;53.090;6.692;2023-04-24T11:40:17;10.80;99.90
53752;DHT22;41095;53.090;6.692;2023-04-24T11:42:46;10.70;99.90
53752;DHT22;41095;53.090;6.692;2023-04-24T11:45:17;10.70;99.90
53752;DHT22;41095;53.090;6.692;2023-04-24T11:47:44;10.70;99.90
53752;DHT22;41095;53.090;6.692;2023-04-24T11:50:14;10.70;99.90
53752;DHT22;41095;53.090;6.692;2023-04-24T11:52:42;10.70;99.90
53752;DHT22;41095;53.090;6.692;2023-04-24T11:57:46;10.90;99.90
53752;DHT22;41095;53.090;6.692;2023-04-24T12:00:31;10.90;99.90
53752;DHT22;41095;53.090;6.692;2023-04-24T12:03:12;10.90;99.90
53752;DHT22;41095;53.090;6.692;2023-04-24T12:05:38;10.80;99.90
53752;DHT22;41095;53.090;6.692;2023-04-24T12:08:04;10.70;99.90
53752;DHT22;41095;53.090;6.692;2023-04-24T12:10:31;10.80;99.90
53752;DHT22;41095;53.090;6.692;2023-04-24T12:12:58;10.80;99.90
53752;DHT22;41095;53.090;6.692;2023-04-24T12:15:25;10.70;99.90
53752;DHT22;41095;53.090;6.692;2023-04-24T12:17:53;10.60;99.90
53752;DHT22;41095;53.090;6.692;2023-04-24T12:20:24;10.60;99.90
53752;DHT22;41095;53.090;6.692;2023-04-24T12:22:52;10.30;99.90
53752;DHT22;41095;53.090;6.692;2023-04-24T12:25:23;10.30;99.90
53752;DHT22;41095;53.090;6.692;2023-04-24T12:30:34;10.10;99.90
53752;DHT22;41095;53.090;6.692;2023-04-24T12:33:01;10.50;99.90
53752;DHT22;41095;53.090;6.692;2023-04-24T12:35:29;10.50;99.90
53752;DHT22;41095;53.090;6.692;2023-04-24T12:37:55;10.60;99.90
53752;DHT22;41095;53.090;6.692;2023-04-24T12:40:21;10.60;99.90
53752;DHT22;41095;53.090;6.692;2023-04-24T12:42:48;10.60;99.90
53752;DHT22;41095;53.090;6.692;2023-04-24T12:45:16;10.70;99.90
53752;DHT22;41095;53.090;6.692;2023-04-24T12:47:43;10.60;99.90
53752;DHT22;41095;53.090;6.692;2023-04-24T12:50:11;10.60;99.90
53752;DHT22;41095;53.090;6.692;2023-04-24T12:52:37;10.80;99.90
53752;DHT22;41095;53.090;6.692;2023-04-24T12:55:03;10.80;99.90
53752;DHT22;41095;53.090;6.692;2023-04-24T12:57:30;10.80;99.90
53752;DHT22;41095;53.090;6.692;2023-04-24T12:59:58;10.90;99.90
53752;DHT22;41095;53.090;6.692;2023-04-24T13:02:25;10.90;99.90
53752;DHT22;41095;53.090;6.692;2023-04-24T13:04:52;10.90;99.90
53752;DHT22;41095;53.090;6.692;2023-04-24T13:07:18;10.90;99.90
53752;DHT22;41095;53.090;6.692;2023-04-24T13:09:44;10.90;99.90
53752;DHT22;41095;53.090;6.692;2023-04-24T13:12:11;10.80;99.90
53752;DHT22;41095;53.090;6.692;2023-04-24T13:14:37;10.80;99.90
53752;DHT22;41095;53.090;6.692;2023-04-24T13:17:03;10.90;99.90
53752;DHT22;41095;53.090;6.692;2023-04-24T13:19:34;10.90;99.90
53752;DHT22;41095;53.090;6.692;2023-04-24T13:22:00;10.90;99.90
53752;DHT22;41095;53.090;6.692;2023-04-24T13:24:26;10.80;99.90
53752;DHT22;41095;53.090;6.692;2023-04-24T13:26:52;10.80;99.90
53752;DHT22;41095;53.090;6.692;2023-04-24T13:29:18;10.70;99.90
53752;DHT22;41095;53.090;6.692;2023-04-24T13:31:44;10.70;99.90
53752;DHT22;41095;53.090;6.692;2023-04-24T13:34:10;11.30;99.90
53752;DHT22;41095;53.090;6.692;2023-04-24T13:36:35;10.80;99.90
53752;DHT22;41095;53.090;6.692;2023-04-24T13:39:02;10.90;99.90
53752;DHT22;41095;53.090;6.692;2023-04-24T13:41:32;11.00;99.90
53752;DHT22;41095;53.090;6.692;2023-04-24T13:43:58;11.00;99.90
53752;DHT22;41095;53.090;6.692;2023-04-24T13:46:24;11.00;99.90
53752;DHT22;41095;53.090;6.692;2023-04-24T13:48:50;11.00;99.90
53752;DHT22;41095;53.090;6.692;2023-04-24T13:51:16;11.00;99.90
53752;DHT22;41095;53.090;6.692;2023-04-24T13:53:42;10.90;99.90
53752;DHT22;41095;53.090;6.692;2023-04-24T13:56:07;10.90;99.90
53752;DHT22;41095;53.090;6.692;2023-04-24T13:58:35;10.90;99.90
53752;DHT22;41095;53.090;6.692;2023-04-24T14:01:02;10.90;99.90
53752;DHT22;41095;53.090;6.692;2023-04-24T14:03:28;10.80;99.90
53752;DHT22;41095;53.090;6.692;2023-04-24T14:05:54;10.90;99.90
53752;DHT22;41095;53.090;6.692;2023-04-24T14:08:20;10.90;99.90
53752;DHT22;41095;53.090;6.692;2023-04-24T14:10:46;10.90;99.90
53752;DHT22;41095;53.090;6.692;2023-04-24T14:13:12;10.90;99.90
53752;DHT22;41095;53.090;6.692;2023-04-24T14:15:37;10.90;99.90
53752;DHT22;41095;53.090;6.692;2023-04-24T14:18:03;10.90;99.90
53752;DHT22;41095;53.090;6.692;2023-04-24T14:20:30;10.80;99.90
53752;DHT22;41095;53.090;6.692;2023-04-24T14:22:56;10.70;99.90
53752;DHT22;41095;53.090;6.692;2023-04-24T14:25:24;10.60;99.90
53752;DHT22;41095;53.090;6.692;2023-04-24T14:27:50;10.50;99.90
53752;DHT22;41095;53.090;6.692;2023-04-24T14:30:16;10.50;99.90
53752;DHT22;41095;53.090;6.692;2023-04-24T14:32:42;10.40;99.90
53752;DHT22;41095;53.090;6.692;2023-04-24T14:35:08;10.30;99.90
53752;DHT22;41095;53.090;6.692;2023-04-24T14:37:34;10.30;99.90
53752;DHT22;41095;53.090;6.692;2023-04-24T14:40:01;10.30;99.90
53752;DHT22;41095;53.090;6.692;2023-04-24T14:42:27;10.30;99.90
53752;DHT22;41095;53.090;6.692;2023-04-24T14:44:54;10.20;99.90
53752;DHT22;41095;53.090;6.692;2023-04-24T14:47:20;10.00;99.90
53752;DHT22;41095;53.090;6.692;2023-04-24T14:49:47;10.00;99.90
53752;DHT22;41095;53.090;6.692;2023-04-24T14:52:13;10.00;99.90
53752;DHT22;41095;53.090;6.692;2023-04-24T14:54:39;10.10;99.90
53752;DHT22;41095;53.090;6.692;2023-04-24T14:57:05;10.20;99.90
53752;DHT22;41095;53.090;6.692;2023-04-24T14:59:31;10.30;99.90
53752;DHT22;41095;53.090;6.692;2023-04-24T15:01:57;10.20;99.90
53752;DHT22;41095;53.090;6.692;2023-04-24T15:04:26;10.30;99.90
53752;DHT22;41095;53.090;6.692;2023-04-24T15:06:52;10.40;99.90
53752;DHT22;41095;53.090;6.692;2023-04-24T15:09:19;10.40;99.90
53752;DHT22;41095;53.090;6.692;2023-04-24T15:11:46;10.40;99.90
53752;DHT22;41095;53.090;6.692;2023-04-24T15:14:11;10.50;99.90
53752;DHT22;41095;53.090;6.692;2023-04-24T15:16:37;10.50;99.90
53752;DHT22;41095;53.090;6.692;2023-04-24T15:19:03;10.60;99.90
53752;DHT22;41095;53.090;6.692;2023-04-24T15:21:29;10.70;99.90
53752;DHT22;41095;53.090;6.692;2023-04-24T15:23:54;10.70;99.90
53752;DHT22;41095;53.090;6.692;2023-04-24T15:26:20;10.70;99.90
53752;DHT22;41095;53.090;6.692;2023-04-24T15:28:46;10.60;99.90
53752;DHT22;41095;53.090;6.692;2023-04-24T15:31:12;10.60;99.90
53752;DHT22;41095;53.090;6.692;2023-04-24T15:33:38;10.50;99.90
53752;DHT22;41095;53.090;6.692;2023-04-24T15:36:04;10.40;99.90
53752;DHT22;41095;53.090;6.692;2023-04-24T15:38:30;10.40;99.90
53752;DHT22;41095;53.090;6.692;2023-04-24T15:40:56;10.20;99.90
53752;DHT22;41095;53.090;6.692;2023-04-24T15:43:22;10.20;99.90
53752;DHT22;41095;53.090;6.692;2023-04-24T15:45:50;10.10;99.90
53752;DHT22;41095;53.090;6.692;2023-04-24T15:48:16;10.10;99.90
53752;DHT22;41095;53.090;6.692;2023-04-24T15:50:42;10.10;99.90